sensor_id;sensor_type;location;lat;lon;timestamp;temperature;humidity
4725;DHT22;2376;53.544;10.226;2022-09-09T00:00:24;16.30;99.90
4725;DHT22;2376;53.544;10.226;2022-09-09T00:02:58;16.30;99.90
4725;DHT22;2376;53.544;10.226;2022-09-09T00:05:32;16.30;99.90
4725;DHT22;2376;53.544;10.226;2022-09-09T00:08:03;16.30;99.90
4725;DHT22;2376;53.544;10.226;2022-09-09T00:10:33;16.30;99.90
4725;DHT22;2376;53.544;10.226;2022-09-09T00:13:08;16.30;99.90
4725;DHT22;2376;53.544;10.226;2022-09-09T00:15:40;16.20;99.90
4725;DHT22;2376;53.544;10.226;2022-09-09T00:18:15;16.20;99.90
4725;DHT22;2376;53.544;10.226;2022-09-09T00:20:47;16.20;99.90
4725;DHT22;2376;53.544;10.226;2022-09-09T00:23:24;16.20;99.90
4725;DHT22;2376;53.544;10.226;2022-09-09T00:25:59;16.10;99.90
4725;DHT22;2376;53.544;10.226;2022-09-09T00:28:31;16.10;99.90
4725;DHT22;2376;53.544;10.226;2022-09-09T00:31:07;16.10;99.90
4725;DHT22;2376;53.544;10.226;2022-09-09T00:33:35;16.10;99.90
4725;DHT22;2376;53.544;10.226;2022-09-09T00:36:02;16.10;99.90
4725;DHT22;2376;53.544;10.226;2022-09-09T00:38:35;16.00;99.90
4725;DHT22;2376;53.544;10.226;2022-09-09T00:41:09;16.00;99.90
4725;DHT22;2376;53.544;10.226;2022-09-09T00:43:39;16.00;99.90
4725;DHT22;2376;53.544;10.226;2022-09-09T00:46:41;16.00;99.90
4725;DHT22;2376;53.544;10.226;2022-09-09T00:49:20;16.00;99.90
4725;DHT22;2376;53.544;10.226;2022-09-09T00:51:58;16.00;99.90
4725;DHT22;2376;53.544;10.226;2022-09-09T00:54:36;16.00;99.90
4725;DHT22;2376;53.544;10.226;2022-09-09T00:57:14;16.00;99.90
4725;DHT22;2376;53.544;10.226;2022-09-09T00:59:47;16.00;99.90
4725;DHT22;2376;53.544;10.226;2022-09-09T01:02:26;16.00;99.90
4725;DHT22;2376;53.544;10.226;2022-09-09T01:04:54;16.00;99.90
4725;DHT22;2376;53.544;10.226;2022-09-09T01:07:23;16.00;99.90
4725;DHT22;2376;53.544;10.226;2022-09-09T01:09:56;16.00;99.90
4725;DHT22;2376;53.544;10.226;2022-09-09T01:12:29;16.00;99.90
4725;DHT22;2376;53.544;10.226;2022-09-09T01:15:03;16.00;99.90
4725;DHT22;2376;53.544;10.226;2022-09-09T01:17:48;16.00;99.90
4725;DHT22;2376;53.544;10.226;2022-09-09T01:20:20;16.00;99.90
4725;DHT22;2376;53.544;10.226;2022-09-09T01:23:03;16.00;99.90
4725;DHT22;2376;53.544;10.226;2022-09-09T01:28:33;16.10;99.90
4725;DHT22;2376;53.544;10.226;2022-09-09T01:31:02;16.10;99.90
4725;DHT22;2376;53.544;10.226;2022-09-09T01:33:29;16.10;99.90
4725;DHT22;2376;53.544;10.226;2022-09-09T01:36:00;16.20;99.90
4725;DHT22;2376;53.544;10.226;2022-09-09T01:38:31;16.20;99.90
4725;DHT22;2376;53.544;10.226;2022-09-09T01:40:59;16.10;99.90
4725;DHT22;2376;53.544;10.226;2022-09-09T01:43:26;16.20;99.90
4725;DHT22;2376;53.544;10.226;2022-09-09T01:45:58;16.20;99.90
4725;DHT22;2376;53.544;10.226;2022-09-09T01:48:25;16.20;99.90
4725;DHT22;2376;53.544;10.226;2022-09-09T01:50:52;16.20;99.90
4725;DHT22;2376;53.544;10.226;2022-09-09T01:53:20;16.20;99.90
4725;DHT22;2376;53.544;10.226;2022-09-09T01:55:56;16.20;99.90
4725;DHT22;2376;53.544;10.226;2022-09-09T01:58:32;16.20;99.90
4725;DHT22;2376;53.544;10.226;2022-09-09T02:01:06;16.10;99.90
4725;DHT22;2376;53.544;10.226;2022-09-09T02:03:36;16.20;99.90
4725;DHT22;2376;53.544;10.226;2022-09-09T02:06:11;16.20;99.90
4725;DHT22;2376;53.544;10.226;2022-09-09T02:08:44;16.20;99.90
4725;DHT22;2376;53.544;10.226;2022-09-09T02:11:14;16.20;99.90
4725;DHT22;2376;53.544;10.226;2022-09-09T02:13:43;16.20;99.90
4725;DHT22;2376;53.544;10.226;2022-09-09T02:16:17;16.10;99.90
4725;DHT22;2376;53.544;10.226;2022-09-09T02:18:48;16.10;99.90
4725;DHT22;2376;53.544;10.226;2022-09-09T02:21:16;16.20;99.90
4725;DHT22;2376;53.544;10.226;2022-09-09T02:23:45;16.10;99.90
4725;DHT22;2376;53.544;10.226;2022-09-09T02:26:14;16.10;99.90
4725;DHT22;2376;53.544;10.226;2022-09-09T02:28:46;16.10;99.90
4725;DHT22;2376;53.544;10.226;2022-09-09T02:31:18;16.10;99.90
4725;DHT22;2376;53.544;10.226;2022-09-09T02:33:50;16.10;99.90
4725;DHT22;2376;53.544;10.226;2022-09-09T02:36:19;16.10;99.90
4725;DHT22;2376;53.544;10.226;2022-09-09T02:38:47;16.10;99.90
4725;DHT22;2376;53.544;10.226;2022-09-09T02:41:20;16.10;99.90
4725;DHT22;2376;53.544;10.226;2022-09-09T02:43:48;16.10;99.90
4725;DHT22;2376;53.544;10.226;2022-09-09T02:46:27;16.10;99.90
4725;DHT22;2376;53.544;10.226;2022-09-09T02:49:01;16.10;99.90
4725;DHT22;2376;53.544;10.226;2022-09-09T02:51:35;16.00;99.90
4725;DHT22;2376;53.544;10.226;2022-09-09T02:54:09;16.00;99.90
4725;DHT22;2376;53.544;10.226;2022-09-09T02:56:41;16.00;99.90
4725;DHT22;2376;53.544;10.226;2022-09-09T02:59:10;16.00;99.90
4725;DHT22;2376;53.544;10.226;2022-09-09T03:01:38;16.00;99.90
4725;DHT22;2376;53.544;10.226;2022-09-09T03:04:05;15.90;99.90
4725;DHT22;2376;53.544;10.226;2022-09-09T03:06:32;15.90;99.90
4725;DHT22;2376;53.544;10.226;2022-09-09T03:08:59;15.90;99.90
4725;DHT22;2376;53.544;10.226;2022-09-09T03:11:28;15.90;99.90
4725;DHT22;2376;53.544;10.226;2022-09-09T03:13:55;15.90;99.90
4725;DHT22;2376;53.544;10.226;2022-09-09T03:16:22;15.90;99.90
4725;DHT22;2376;53.544;10.226;2022-09-09T03:18:50;15.90;99.90
4725;DHT22;2376;53.544;10.226;2022-09-09T03:21:17;15.90;99.90
4725;DHT22;2376;53.544;10.226;2022-09-09T03:23:44;15.90;99.90
4725;DHT22;2376;53.544;10.226;2022-09-09T03:26:11;15.90;99.90
4725;DHT22;2376;53.544;10.226;2022-09-09T03:28:40;15.90;99.90
4725;DHT22;2376;53.544;10.226;2022-09-09T03:31:07;15.90;99.90
4725;DHT22;2376;53.544;10.226;2022-09-09T03:33:35;15.90;99.90
4725;DHT22;2376;53.544;10.226;2022-09-09T03:36:04;15.90;99.90
4725;DHT22;2376;53.544;10.226;2022-09-09T03:38:30;15.90;99.90
4725;DHT22;2376;53.544;10.226;2022-09-09T03:40:57;15.80;99.90
4725;DHT22;2376;53.544;10.226;2022-09-09T03:43:26;15.80;99.90
4725;DHT22;2376;53.544;10.226;2022-09-09T03:45:53;15.80;99.90
4725;DHT22;2376;53.544;10.226;2022-09-09T03:48:22;15.80;99.90
4725;DHT22;2376;53.544;10.226;2022-09-09T03:50:50;15.80;99.90
4725;DHT22;2376;53.544;10.226;2022-09-09T03:53:21;15.80;99.90
4725;DHT22;2376;53.544;10.226;2022-09-09T03:55:49;15.80;99.90
4725;DHT22;2376;53.544;10.226;2022-09-09T03:58:18;15.80;99.90
4725;DHT22;2376;53.544;10.226;2022-09-09T04:00:53;15.80;99.90
4725;DHT22;2376;53.544;10.226;2022-09-09T04:03:20;15.80;99.90
4725;DHT22;2376;53.544;10.226;2022-09-09T04:05:48;15.80;99.90
4725;DHT22;2376;53.544;10.226;2022-09-09T04:08:15;15.70;99.90
4725;DHT22;2376;53.544;10.226;2022-09-09T04:10:44;15.70;99.90
4725;DHT22;2376;53.544;10.226;2022-09-09T04:13:11;15.70;99.90
4725;DHT22;2376;53.544;10.226;2022-09-09T04:15:39;15.70;99.90
4725;DHT22;2376;53.544;10.226;2022-09-09T04:18:06;15.70;99.90
4725;DHT22;2376;53.544;10.226;2022-09-09T04:20:32;15.70;99.90
4725;DHT22;2376;53.544;10.226;2022-09-09T04:22:59;15.60;99.90
4725;DHT22;2376;53.544;10.226;2022-09-09T04:25:26;15.70;99.90
4725;DHT22;2376;53.544;10.226;2022-09-09T04:27:54;15.60;99.90
4725;DHT22;2376;53.544;10.226;2022-09-09T04:30:22;15.60;99.90
4725;DHT22;2376;53.544;10.226;2022-09-09T04:32:48;15.60;99.90
4725;DHT22;2376;53.544;10.226;2022-09-09T04:35:15;15.60;99.90
4725;DHT22;2376;53.544;10.226;2022-09-09T04:37:42;15.60;99.90
4725;DHT22;2376;53.544;10.226;2022-09-09T04:40:10;15.50;99.90
4725;DHT22;2376;53.544;10.226;2022-09-09T04:42:37;15.50;99.90
4725;DHT22;2376;53.544;10.226;2022-09-09T04:45:06;15.50;99.90
4725;DHT22;2376;53.544;10.226;2022-09-09T04:47:36;15.50;99.90
4725;DHT22;2376;53.544;10.226;2022-09-09T04:50:03;15.50;99.90
4725;DHT22;2376;53.544;10.226;2022-09-09T04:52:30;15.50;99.90
4725;DHT22;2376;53.544;10.226;2022-09-09T04:54:57;15.60;99.90
4725;DHT22;2376;53.544;10.226;2022-09-09T04:57:24;15.50;99.90
4725;DHT22;2376;53.544;10.226;2022-09-09T04:59:51;15.50;99.90
4725;DHT22;2376;53.544;10.226;2022-09-09T05:02:19;15.50;99.90
4725;DHT22;2376;53.544;10.226;2022-09-09T05:04:45;15.60;99.90
4725;DHT22;2376;53.544;10.226;2022-09-09T05:07:12;15.60;99.90
4725;DHT22;2376;53.544;10.226;2022-09-09T05:09:40;15.60;99.90
4725;DHT22;2376;53.544;10.226;2022-09-09T05:12:06;15.60;99.90
4725;DHT22;2376;53.544;10.226;2022-09-09T05:14:33;15.60;99.90
4725;DHT22;2376;53.544;10.226;2022-09-09T05:17:01;15.60;99.90
4725;DHT22;2376;53.544;10.226;2022-09-09T05:19:29;15.60;99.90
4725;DHT22;2376;53.544;10.226;2022-09-09T05:21:56;15.60;99.90
4725;DHT22;2376;53.544;10.226;2022-09-09T05:24:23;15.60;99.90
4725;DHT22;2376;53.544;10.226;2022-09-09T05:26:49;15.60;99.90
4725;DHT22;2376;53.544;10.226;2022-09-09T05:29:16;15.50;99.90
4725;DHT22;2376;53.544;10.226;2022-09-09T05:31:45;15.60;99.90
4725;DHT22;2376;53.544;10.226;2022-09-09T05:34:12;15.60;99.90
4725;DHT22;2376;53.544;10.226;2022-09-09T05:36:40;15.60;99.90
4725;DHT22;2376;53.544;10.226;2022-09-09T05:39:07;15.60;99.90
4725;DHT22;2376;53.544;10.226;2022-09-09T05:41:34;15.60;99.90
4725;DHT22;2376;53.544;10.226;2022-09-09T05:44:01;15.60;99.90
4725;DHT22;2376;53.544;10.226;2022-09-09T05:46:29;15.60;99.90
4725;DHT22;2376;53.544;10.226;2022-09-09T05:48:56;15.60;99.90
4725;DHT22;2376;53.544;10.226;2022-09-09T05:51:25;15.60;99.90
4725;DHT22;2376;53.544;10.226;2022-09-09T05:53:54;15.70;99.90
4725;DHT22;2376;53.544;10.226;2022-09-09T05:56:25;15.70;99.90
4725;DHT22;2376;53.544;10.226;2022-09-09T05:58:53;15.70;99.90
4725;DHT22;2376;53.544;10.226;2022-09-09T06:01:22;15.70;99.90
4725;DHT22;2376;53.544;10.226;2022-09-09T06:03:50;15.80;99.90
4725;DHT22;2376;53.544;10.226;2022-09-09T06:06:18;15.80;99.90
4725;DHT22;2376;53.544;10.226;2022-09-09T06:08:49;15.80;99.90
4725;DHT22;2376;53.544;10.226;2022-09-09T06:11:19;15.80;99.90
4725;DHT22;2376;53.544;10.226;2022-09-09T06:13:47;15.80;99.90
4725;DHT22;2376;53.544;10.226;2022-09-09T06:16:17;15.80;99.90
4725;DHT22;2376;53.544;10.226;2022-09-09T06:18:44;15.90;99.90
4725;DHT22;2376;53.544;10.226;2022-09-09T06:21:16;15.90;99.90
4725;DHT22;2376;53.544;10.226;2022-09-09T06:23:44;15.90;99.90
4725;DHT22;2376;53.544;10.226;2022-09-09T06:26:12;15.90;99.90
4725;DHT22;2376;53.544;10.226;2022-09-09T06:28:40;15.90;99.90
4725;DHT22;2376;53.544;10.226;2022-09-09T06:31:10;15.90;99.90
4725;DHT22;2376;53.544;10.226;2022-09-09T06:33:38;16.00;99.90
4725;DHT22;2376;53.544;10.226;2022-09-09T06:36:07;16.00;99.90
4725;DHT22;2376;53.544;10.226;2022-09-09T06:38:36;16.00;99.90
4725;DHT22;2376;53.544;10.226;2022-09-09T06:41:04;16.10;99.90
4725;DHT22;2376;53.544;10.226;2022-09-09T06:43:31;16.10;99.90
4725;DHT22;2376;53.544;10.226;2022-09-09T06:46:00;16.10;99.90
4725;DHT22;2376;53.544;10.226;2022-09-09T06:48:27;16.20;99.90
4725;DHT22;2376;53.544;10.226;2022-09-09T06:51:04;16.20;99.90
4725;DHT22;2376;53.544;10.226;2022-09-09T06:53:31;16.20;99.90
4725;DHT22;2376;53.544;10.226;2022-09-09T06:55:59;16.20;99.90
4725;DHT22;2376;53.544;10.226;2022-09-09T06:58:26;16.30;99.90
4725;DHT22;2376;53.544;10.226;2022-09-09T07:01:02;16.30;99.90
4725;DHT22;2376;53.544;10.226;2022-09-09T07:03:28;16.30;99.90
4725;DHT22;2376;53.544;10.226;2022-09-09T07:05:55;16.30;99.90
4725;DHT22;2376;53.544;10.226;2022-09-09T07:08:22;16.30;99.90
4725;DHT22;2376;53.544;10.226;2022-09-09T07:10:50;16.30;99.90
4725;DHT22;2376;53.544;10.226;2022-09-09T07:13:19;16.30;99.90
4725;DHT22;2376;53.544;10.226;2022-09-09T07:15:49;16.30;99.90
4725;DHT22;2376;53.544;10.226;2022-09-09T07:18:17;16.40;99.90
4725;DHT22;2376;53.544;10.226;2022-09-09T07:20:52;16.40;99.90
4725;DHT22;2376;53.544;10.226;2022-09-09T07:23:19;16.40;99.90
4725;DHT22;2376;53.544;10.226;2022-09-09T07:25:45;16.40;99.90
4725;DHT22;2376;53.544;10.226;2022-09-09T07:28:12;16.50;99.90
4725;DHT22;2376;53.544;10.226;2022-09-09T07:30:39;16.50;99.90
4725;DHT22;2376;53.544;10.226;2022-09-09T07:33:06;16.50;99.90
4725;DHT22;2376;53.544;10.226;2022-09-09T07:35:36;16.60;99.90
4725;DHT22;2376;53.544;10.226;2022-09-09T07:38:03;16.60;99.90
4725;DHT22;2376;53.544;10.226;2022-09-09T07:40:32;16.60;99.90
4725;DHT22;2376;53.544;10.226;2022-09-09T07:42:59;16.60;99.90
4725;DHT22;2376;53.544;10.226;2022-09-09T07:45:25;16.60;99.90
4725;DHT22;2376;53.544;10.226;2022-09-09T07:47:53;16.60;99.90
4725;DHT22;2376;53.544;10.226;2022-09-09T07:50:22;16.70;99.90
4725;DHT22;2376;53.544;10.226;2022-09-09T07:52:50;16.70;99.90
4725;DHT22;2376;53.544;10.226;2022-09-09T07:55:17;16.80;99.90
4725;DHT22;2376;53.544;10.226;2022-09-09T07:57:45;16.90;99.90
4725;DHT22;2376;53.544;10.226;2022-09-09T08:00:13;16.90;99.90
4725;DHT22;2376;53.544;10.226;2022-09-09T08:02:40;16.90;99.90
4725;DHT22;2376;53.544;10.226;2022-09-09T08:05:07;17.00;99.90
4725;DHT22;2376;53.544;10.226;2022-09-09T08:07:34;17.00;99.90
4725;DHT22;2376;53.544;10.226;2022-09-09T08:10:02;17.10;99.90
4725;DHT22;2376;53.544;10.226;2022-09-09T08:12:29;17.10;99.90
4725;DHT22;2376;53.544;10.226;2022-09-09T08:14:56;17.10;99.90
4725;DHT22;2376;53.544;10.226;2022-09-09T08:17:23;17.20;99.90
4725;DHT22;2376;53.544;10.226;2022-09-09T08:19:49;17.20;99.90
4725;DHT22;2376;53.544;10.226;2022-09-09T08:22:16;17.30;99.90
4725;DHT22;2376;53.544;10.226;2022-09-09T08:24:43;17.30;99.90
4725;DHT22;2376;53.544;10.226;2022-09-09T08:27:11;17.30;99.90
4725;DHT22;2376;53.544;10.226;2022-09-09T08:29:38;17.40;99.90
4725;DHT22;2376;53.544;10.226;2022-09-09T08:32:05;17.40;99.90
4725;DHT22;2376;53.544;10.226;2022-09-09T08:34:31;17.50;99.90
4725;DHT22;2376;53.544;10.226;2022-09-09T08:36:58;17.50;99.90
4725;DHT22;2376;53.544;10.226;2022-09-09T08:39:24;17.50;99.90
4725;DHT22;2376;53.544;10.226;2022-09-09T08:42:16;17.60;99.90
4725;DHT22;2376;53.544;10.226;2022-09-09T08:45:12;17.60;99.90
4725;DHT22;2376;53.544;10.226;2022-09-09T08:47:47;17.60;99.90
4725;DHT22;2376;53.544;10.226;2022-09-09T08:50:21;17.60;99.90
4725;DHT22;2376;53.544;10.226;2022-09-09T08:52:54;17.60;99.90
4725;DHT22;2376;53.544;10.226;2022-09-09T08:55:27;17.70;99.90
4725;DHT22;2376;53.544;10.226;2022-09-09T08:57:58;17.70;99.90
4725;DHT22;2376;53.544;10.226;2022-09-09T09:00:32;17.80;99.90
4725;DHT22;2376;53.544;10.226;2022-09-09T09:03:06;17.80;99.90
4725;DHT22;2376;53.544;10.226;2022-09-09T09:05:44;17.80;99.90
4725;DHT22;2376;53.544;10.226;2022-09-09T09:08:17;17.80;99.90
4725;DHT22;2376;53.544;10.226;2022-09-09T09:10:47;17.90;99.90
4725;DHT22;2376;53.544;10.226;2022-09-09T09:13:19;17.90;99.90
4725;DHT22;2376;53.544;10.226;2022-09-09T09:15:50;17.90;99.90
4725;DHT22;2376;53.544;10.226;2022-09-09T09:18:18;17.90;99.90
4725;DHT22;2376;53.544;10.226;2022-09-09T09:20:51;17.90;99.90
4725;DHT22;2376;53.544;10.226;2022-09-09T09:23:22;17.90;99.90
4725;DHT22;2376;53.544;10.226;2022-09-09T09:25:52;18.00;99.90
4725;DHT22;2376;53.544;10.226;2022-09-09T09:28:24;18.00;99.90
4725;DHT22;2376;53.544;10.226;2022-09-09T09:30:55;18.00;99.90
4725;DHT22;2376;53.544;10.226;2022-09-09T09:33:26;18.10;99.90
4725;DHT22;2376;53.544;10.226;2022-09-09T09:35:54;18.10;99.90
4725;DHT22;2376;53.544;10.226;2022-09-09T09:38:23;18.10;99.90
4725;DHT22;2376;53.544;10.226;2022-09-09T09:40:52;18.20;99.90
4725;DHT22;2376;53.544;10.226;2022-09-09T09:43:26;18.30;99.90
4725;DHT22;2376;53.544;10.226;2022-09-09T09:45:54;18.30;99.90
4725;DHT22;2376;53.544;10.226;2022-09-09T09:48:23;18.40;99.90
4725;DHT22;2376;53.544;10.226;2022-09-09T09:50:52;18.40;99.90
4725;DHT22;2376;53.544;10.226;2022-09-09T09:53:22;18.50;99.90
4725;DHT22;2376;53.544;10.226;2022-09-09T09:55:54;18.60;99.90
4725;DHT22;2376;53.544;10.226;2022-09-09T09:58:22;18.70;99.90
4725;DHT22;2376;53.544;10.226;2022-09-09T10:00:52;18.70;99.90
4725;DHT22;2376;53.544;10.226;2022-09-09T10:03:22;18.90;99.90
4725;DHT22;2376;53.544;10.226;2022-09-09T10:05:50;18.90;99.90
4725;DHT22;2376;53.544;10.226;2022-09-09T10:08:17;19.00;99.90
4725;DHT22;2376;53.544;10.226;2022-09-09T10:11:14;19.10;99.90
4725;DHT22;2376;53.544;10.226;2022-09-09T10:13:52;19.20;99.90
4725;DHT22;2376;53.544;10.226;2022-09-09T10:16:38;19.30;99.90
4725;DHT22;2376;53.544;10.226;2022-09-09T10:19:12;19.30;99.90
4725;DHT22;2376;53.544;10.226;2022-09-09T10:22:02;19.40;99.90
4725;DHT22;2376;53.544;10.226;2022-09-09T10:24:56;19.40;99.90
4725;DHT22;2376;53.544;10.226;2022-09-09T10:27:33;19.50;99.90
4725;DHT22;2376;53.544;10.226;2022-09-09T10:30:14;19.50;99.90
4725;DHT22;2376;53.544;10.226;2022-09-09T10:32:48;19.60;99.90
4725;DHT22;2376;53.544;10.226;2022-09-09T10:35:27;19.70;99.90
4725;DHT22;2376;53.544;10.226;2022-09-09T10:38:16;19.70;99.90
4725;DHT22;2376;53.544;10.226;2022-09-09T10:46:46;19.90;99.90
4725;DHT22;2376;53.544;10.226;2022-09-09T10:49:24;19.90;99.90
4725;DHT22;2376;53.544;10.226;2022-09-09T10:51:58;19.90;99.90
4725;DHT22;2376;53.544;10.226;2022-09-09T10:54:36;19.90;99.90
4725;DHT22;2376;53.544;10.226;2022-09-09T10:57:10;19.90;99.90
4725;DHT22;2376;53.544;10.226;2022-09-09T10:59:42;19.90;99.90
4725;DHT22;2376;53.544;10.226;2022-09-09T11:02:15;19.90;99.90
4725;DHT22;2376;53.544;10.226;2022-09-09T11:04:49;19.90;99.90
4725;DHT22;2376;53.544;10.226;2022-09-09T11:07:25;19.90;99.90
4725;DHT22;2376;53.544;10.226;2022-09-09T11:09:58;19.90;99.90
4725;DHT22;2376;53.544;10.226;2022-09-09T11:12:27;19.90;99.90
4725;DHT22;2376;53.544;10.226;2022-09-09T11:15:01;19.90;99.90
4725;DHT22;2376;53.544;10.226;2022-09-09T11:17:35;19.90;99.90
4725;DHT22;2376;53.544;10.226;2022-09-09T11:20:11;19.90;99.90
4725;DHT22;2376;53.544;10.226;2022-09-09T11:22:42;19.90;99.90
4725;DHT22;2376;53.544;10.226;2022-09-09T11:25:15;20.00;99.90
4725;DHT22;2376;53.544;10.226;2022-09-09T11:27:52;20.00;99.90
4725;DHT22;2376;53.544;10.226;2022-09-09T11:30:22;20.00;99.90
4725;DHT22;2376;53.544;10.226;2022-09-09T11:33:25;20.00;99.90
4725;DHT22;2376;53.544;10.226;2022-09-09T11:36:04;20.00;99.90
4725;DHT22;2376;53.544;10.226;2022-09-09T11:38:39;20.10;99.90
4725;DHT22;2376;53.544;10.226;2022-09-09T11:41:10;20.10;99.90
4725;DHT22;2376;53.544;10.226;2022-09-09T11:43:40;20.20;99.90
4725;DHT22;2376;53.544;10.226;2022-09-09T11:46:08;20.30;99.90
4725;DHT22;2376;53.544;10.226;2022-09-09T11:48:37;20.40;99.90
4725;DHT22;2376;53.544;10.226;2022-09-09T11:51:08;20.40;99.90
4725;DHT22;2376;53.544;10.226;2022-09-09T11:53:47;20.50;99.90
4725;DHT22;2376;53.544;10.226;2022-09-09T11:56:24;20.50;99.90
4725;DHT22;2376;53.544;10.226;2022-09-09T11:58:57;20.50;99.90
4725;DHT22;2376;53.544;10.226;2022-09-09T12:01:37;20.40;99.90
4725;DHT22;2376;53.544;10.226;2022-09-09T12:04:16;20.40;99.90
4725;DHT22;2376;53.544;10.226;2022-09-09T12:06:46;20.50;99.90
4725;DHT22;2376;53.544;10.226;2022-09-09T12:09:24;20.50;99.90
4725;DHT22;2376;53.544;10.226;2022-09-09T12:11:52;20.40;99.90
4725;DHT22;2376;53.544;10.226;2022-09-09T12:14:23;20.40;99.90
4725;DHT22;2376;53.544;10.226;2022-09-09T12:17:10;20.40;99.90
4725;DHT22;2376;53.544;10.226;2022-09-09T12:19:36;20.40;99.90
4725;DHT22;2376;53.544;10.226;2022-09-09T12:22:09;20.40;99.90
4725;DHT22;2376;53.544;10.226;2022-09-09T12:24:46;20.30;99.90
4725;DHT22;2376;53.544;10.226;2022-09-09T12:27:18;20.20;99.90
4725;DHT22;2376;53.544;10.226;2022-09-09T12:29:52;20.20;99.90
4725;DHT22;2376;53.544;10.226;2022-09-09T12:32:24;20.00;99.90
4725;DHT22;2376;53.544;10.226;2022-09-09T12:34:54;19.80;99.90
4725;DHT22;2376;53.544;10.226;2022-09-09T12:37:29;19.80;99.90
4725;DHT22;2376;53.544;10.226;2022-09-09T12:39:57;19.70;99.90
4725;DHT22;2376;53.544;10.226;2022-09-09T12:42:26;19.80;99.90
4725;DHT22;2376;53.544;10.226;2022-09-09T12:44:57;19.80;99.90
4725;DHT22;2376;53.544;10.226;2022-09-09T12:47:30;19.80;99.90
4725;DHT22;2376;53.544;10.226;2022-09-09T12:50:00;19.80;99.90
4725;DHT22;2376;53.544;10.226;2022-09-09T12:52:31;19.80;99.90
4725;DHT22;2376;53.544;10.226;2022-09-09T12:55:00;19.90;99.90
4725;DHT22;2376;53.544;10.226;2022-09-09T12:57:33;19.90;99.90
4725;DHT22;2376;53.544;10.226;2022-09-09T13:00:06;20.00;99.90
4725;DHT22;2376;53.544;10.226;2022-09-09T13:02:35;20.00;99.90
4725;DHT22;2376;53.544;10.226;2022-09-09T13:05:15;20.00;99.90
4725;DHT22;2376;53.544;10.226;2022-09-09T13:07:44;20.00;99.90
4725;DHT22;2376;53.544;10.226;2022-09-09T13:10:12;20.00;99.90
4725;DHT22;2376;53.544;10.226;2022-09-09T13:12:39;20.00;99.90
4725;DHT22;2376;53.544;10.226;2022-09-09T13:15:13;19.90;99.90
4725;DHT22;2376;53.544;10.226;2022-09-09T13:17:40;20.00;99.90
4725;DHT22;2376;53.544;10.226;2022-09-09T13:20:16;20.00;99.90
4725;DHT22;2376;53.544;10.226;2022-09-09T13:22:44;20.00;99.90
4725;DHT22;2376;53.544;10.226;2022-09-09T13:25:21;20.00;99.90
4725;DHT22;2376;53.544;10.226;2022-09-09T13:27:56;20.00;99.90
4725;DHT22;2376;53.544;10.226;2022-09-09T13:30:24;20.10;99.90
4725;DHT22;2376;53.544;10.226;2022-09-09T13:33:03;20.00;99.90
4725;DHT22;2376;53.544;10.226;2022-09-09T13:35:30;20.10;99.90
4725;DHT22;2376;53.544;10.226;2022-09-09T13:38:05;20.00;99.90
4725;DHT22;2376;53.544;10.226;2022-09-09T13:40:33;20.00;99.90
4725;DHT22;2376;53.544;10.226;2022-09-09T13:42:59;20.00;99.90
4725;DHT22;2376;53.544;10.226;2022-09-09T13:45:27;20.00;99.90
4725;DHT22;2376;53.544;10.226;2022-09-09T13:47:55;20.00;99.90
4725;DHT22;2376;53.544;10.226;2022-09-09T13:50:23;19.90;99.90
4725;DHT22;2376;53.544;10.226;2022-09-09T13:52:52;19.90;99.90
4725;DHT22;2376;53.544;10.226;2022-09-09T13:55:22;19.90;99.90
4725;DHT22;2376;53.544;10.226;2022-09-09T13:57:52;19.90;99.90
4725;DHT22;2376;53.544;10.226;2022-09-09T14:00:20;19.90;99.90
4725;DHT22;2376;53.544;10.226;2022-09-09T14:02:47;19.80;99.90
4725;DHT22;2376;53.544;10.226;2022-09-09T14:05:14;19.80;99.90
4725;DHT22;2376;53.544;10.226;2022-09-09T14:07:41;19.80;99.90
4725;DHT22;2376;53.544;10.226;2022-09-09T14:10:09;19.70;99.90
4725;DHT22;2376;53.544;10.226;2022-09-09T14:12:37;19.70;99.90
4725;DHT22;2376;53.544;10.226;2022-09-09T14:15:05;19.60;99.90
4725;DHT22;2376;53.544;10.226;2022-09-09T14:17:32;19.60;99.90
4725;DHT22;2376;53.544;10.226;2022-09-09T14:20:01;19.60;99.90
4725;DHT22;2376;53.544;10.226;2022-09-09T14:22:28;19.50;99.90
4725;DHT22;2376;53.544;10.226;2022-09-09T14:24:54;19.50;99.90
4725;DHT22;2376;53.544;10.226;2022-09-09T14:27:23;19.50;99.90
4725;DHT22;2376;53.544;10.226;2022-09-09T14:29:52;19.40;99.90
4725;DHT22;2376;53.544;10.226;2022-09-09T14:32:20;19.40;99.90
4725;DHT22;2376;53.544;10.226;2022-09-09T14:34:47;19.30;99.90
4725;DHT22;2376;53.544;10.226;2022-09-09T14:37:14;19.30;99.90
4725;DHT22;2376;53.544;10.226;2022-09-09T14:39:41;19.20;99.90
4725;DHT22;2376;53.544;10.226;2022-09-09T14:42:09;19.10;99.90
4725;DHT22;2376;53.544;10.226;2022-09-09T14:44:36;19.10;99.90
4725;DHT22;2376;53.544;10.226;2022-09-09T14:47:05;19.10;99.90
4725;DHT22;2376;53.544;10.226;2022-09-09T14:49:33;19.00;99.90
4725;DHT22;2376;53.544;10.226;2022-09-09T14:52:00;19.00;99.90
4725;DHT22;2376;53.544;10.226;2022-09-09T14:54:26;18.90;99.90
4725;DHT22;2376;53.544;10.226;2022-09-09T14:56:53;18.90;99.90
4725;DHT22;2376;53.544;10.226;2022-09-09T14:59:20;18.90;99.90
4725;DHT22;2376;53.544;10.226;2022-09-09T15:01:47;18.90;99.90
4725;DHT22;2376;53.544;10.226;2022-09-09T15:04:15;18.90;99.90
4725;DHT22;2376;53.544;10.226;2022-09-09T15:06:43;18.80;99.90
4725;DHT22;2376;53.544;10.226;2022-09-09T15:09:14;18.80;99.90
4725;DHT22;2376;53.544;10.226;2022-09-09T15:11:40;18.80;99.90
4725;DHT22;2376;53.544;10.226;2022-09-09T15:14:08;18.70;99.90
4725;DHT22;2376;53.544;10.226;2022-09-09T15:16:36;18.70;99.90
4725;DHT22;2376;53.544;10.226;2022-09-09T15:19:02;18.70;99.90
4725;DHT22;2376;53.544;10.226;2022-09-09T15:21:32;18.70;99.90
4725;DHT22;2376;53.544;10.226;2022-09-09T15:24:00;18.70;99.90
4725;DHT22;2376;53.544;10.226;2022-09-09T15:26:27;18.70;99.90
4725;DHT22;2376;53.544;10.226;2022-09-09T15:28:54;18.60;99.90
4725;DHT22;2376;53.544;10.226;2022-09-09T15:31:22;18.60;99.90
4725;DHT22;2376;53.544;10.226;2022-09-09T15:33:50;18.50;99.90
4725;DHT22;2376;53.544;10.226;2022-09-09T15:36:19;18.50;99.90
4725;DHT22;2376;53.544;10.226;2022-09-09T15:38:47;18.50;99.90
4725;DHT22;2376;53.544;10.226;2022-09-09T15:41:15;18.40;99.90
4725;DHT22;2376;53.544;10.226;2022-09-09T15:43:43;18.40;99.90
4725;DHT22;2376;53.544;10.226;2022-09-09T15:46:26;18.30;99.90
4725;DHT22;2376;53.544;10.226;2022-09-09T15:48:54;18.30;99.90
4725;DHT22;2376;53.544;10.226;2022-09-09T15:51:22;18.40;99.90
4725;DHT22;2376;53.544;10.226;2022-09-09T15:53:53;18.40;99.90
4725;DHT22;2376;53.544;10.226;2022-09-09T15:56:20;18.40;99.90
4725;DHT22;2376;53.544;10.226;2022-09-09T15:58:47;18.50;99.90
4725;DHT22;2376;53.544;10.226;2022-09-09T16:01:14;18.50;99.90
4725;DHT22;2376;53.544;10.226;2022-09-09T16:03:42;18.50;99.90
4725;DHT22;2376;53.544;10.226;2022-09-09T16:06:12;18.50;99.90
4725;DHT22;2376;53.544;10.226;2022-09-09T16:08:40;18.60;99.90
4725;DHT22;2376;53.544;10.226;2022-09-09T16:11:09;18.60;99.90
4725;DHT22;2376;53.544;10.226;2022-09-09T16:13:38;18.60;99.90